createdAt,value
2018-04-29T00:01:52.534Z,97139
2018-04-29T00:04:20.701Z,97138
2018-04-29T00:06:48.921Z,97131
2018-04-29T00:09:17.131Z,97128
2018-04-29T00:11:46.115Z,97122
2018-04-29T00:14:14.296Z,97118
2018-04-29T00:16:42.521Z,97117
2018-04-29T00:19:10.728Z,97118
2018-04-29T00:21:38.917Z,97112
2018-04-29T00:24:07.168Z,97107
2018-04-29T00:26:35.336Z,97106
2018-04-29T00:29:03.509Z,97105
2018-04-29T00:31:31.712Z,97101
2018-04-29T00:33:59.942Z,97104
2018-04-29T00:36:28.117Z,97103
2018-04-29T00:38:56.318Z,97107
2018-04-29T00:41:24.489Z,97099
2018-04-29T00:43:52.660Z,97100
2018-04-29T00:46:21.607Z,97097
2018-04-29T00:48:50.549Z,97099
2018-04-29T00:51:19.540Z,97098
2018-04-29T00:53:47.715Z,97096
2018-04-29T00:56:15.919Z,97096
2018-04-29T00:58:44.126Z,97089
2018-04-29T01:01:12.319Z,97086
2018-04-29T01:03:40.543Z,97078
2018-04-29T01:06:08.747Z,97078
2018-04-29T01:08:37.708Z,97075
2018-04-29T01:11:05.934Z,97078
2018-04-29T01:13:34.145Z,97079
2018-04-29T01:16:02.323Z,97083
2018-04-29T01:18:30.613Z,97085
2018-04-29T01:20:58.788Z,97083
2018-04-29T01:23:27.010Z,97077
2018-04-29T01:25:55.217Z,97075
2018-04-29T01:28:23.398Z,97076
2018-04-29T01:30:51.597Z,97074
2018-04-29T01:33:20.593Z,97073
2018-04-29T01:35:49.556Z,97074
2018-04-29T01:38:17.775Z,97080
2018-04-29T01:40:46.712Z,97084
2018-04-29T01:43:14.885Z,97077
2018-04-29T01:45:43.060Z,97081
2018-04-29T01:48:11.328Z,97080
2018-04-29T01:50:39.500Z,97079
2018-04-29T01:53:07.698Z,97080
2018-04-29T01:55:35.911Z,97089
2018-04-29T01:58:04.864Z,97089
2018-04-29T02:00:33.045Z,97087
2018-04-29T02:03:01.241Z,97082
2018-04-29T02:05:29.443Z,97076
2018-04-29T02:07:57.627Z,97078
2018-04-29T02:10:25.797Z,97074
2018-04-29T02:12:53.973Z,97078
2018-04-29T02:15:22.180Z,97072
2018-04-29T02:17:50.392Z,97072
2018-04-29T02:20:18.582Z,97069
2018-04-29T02:22:47.549Z,97065
2018-04-29T02:25:15.754Z,97064
2018-04-29T02:27:44.714Z,97060
2018-04-29T02:30:13.651Z,97061
2018-04-29T02:32:41.845Z,97063
2018-04-29T02:35:10.026Z,97059
2018-04-29T02:37:38.240Z,97058
2018-04-29T02:40:06.449Z,97054
2018-04-29T02:42:34.625Z,97049
2018-04-29T02:45:02.820Z,97051
2018-04-29T02:47:30.996Z,97050
2018-04-29T02:49:59.209Z,97049
2018-04-29T02:52:27.425Z,97045
2018-04-29T02:54:55.604Z,97040
2018-04-29T02:57:23.797Z,97036
2018-04-29T02:59:51.973Z,97031
2018-04-29T03:02:20.157Z,97035
2018-04-29T03:04:48.336Z,97033
2018-04-29T03:07:16.514Z,97029
2018-04-29T03:09:44.700Z,97028
2018-04-29T03:12:12.923Z,97026
2018-04-29T03:14:41.097Z,97024
2018-04-29T03:17:09.284Z,97025
2018-04-29T03:19:37.505Z,97026
2018-04-29T03:22:05.691Z,97025
2018-04-29T03:24:33.887Z,97026
2018-04-29T03:27:02.844Z,97030
2018-04-29T03:29:31.053Z,97030
2018-04-29T03:32:00.002Z,97027
2018-04-29T03:34:28.174Z,97024
2018-04-29T03:36:57.142Z,97025
2018-04-29T03:39:25.328Z,97028
2018-04-29T03:41:53.508Z,97023
2018-04-29T03:44:21.688Z,97030
2018-04-29T03:46:49.864Z,97026
2018-04-29T03:49:18.103Z,97030
2018-04-29T03:51:46.302Z,97034
2018-04-29T03:54:14.497Z,97027
2018-04-29T03:56:42.679Z,97028
2018-04-29T03:59:28.900Z,97029
2018-04-29T04:02:15.563Z,97034
2018-04-29T04:04:43.737Z,97039
2018-04-29T04:07:11.906Z,97037
2018-04-29T04:09:40.104Z,97046
2018-04-29T04:12:08.286Z,97040
2018-04-29T04:14:36.483Z,97044
2018-04-29T04:17:05.420Z,97042
2018-04-29T04:19:33.625Z,97037
2018-04-29T04:22:01.859Z,97046
2018-04-29T04:24:30.063Z,97036
2018-04-29T04:26:58.248Z,97040
2018-04-29T04:29:26.425Z,97039
2018-04-29T04:31:54.621Z,97034
2018-04-29T04:34:23.621Z,97041
2018-04-29T04:36:52.805Z,97040
2018-04-29T04:39:20.981Z,97038
2018-04-29T04:41:49.164Z,97035
2018-04-29T04:44:18.114Z,97031
2018-04-29T04:46:46.282Z,97041
2018-04-29T04:49:14.469Z,97037
2018-04-29T04:51:42.667Z,97040
2018-04-29T04:54:10.853Z,97041
2018-04-29T04:56:39.816Z,97046
2018-04-29T04:59:07.985Z,97040
2018-04-29T05:01:36.176Z,97046
2018-04-29T05:04:04.345Z,97049
2018-04-29T05:06:32.525Z,97045
2018-04-29T05:09:00.752Z,97045
2018-04-29T05:11:28.925Z,97047
2018-04-29T05:13:57.117Z,97052
2018-04-29T05:16:25.313Z,97040
2018-04-29T05:18:53.492Z,97051
2018-04-29T05:21:21.692Z,97045
2018-04-29T05:23:49.872Z,97054
2018-04-29T05:26:18.820Z,97057
2018-04-29T05:28:47.042Z,97056
2018-04-29T05:31:16.025Z,97057
2018-04-29T05:33:44.212Z,97058
2018-04-29T05:36:13.171Z,97061
2018-04-29T05:38:41.347Z,97066
2018-04-29T05:41:09.637Z,97064
2018-04-29T05:43:37.781Z,97063
2018-04-29T05:46:05.956Z,97065
2018-04-29T05:48:34.170Z,97064
2018-04-29T05:51:03.164Z,97055
2018-04-29T05:53:31.354Z,97055
2018-04-29T05:56:00.294Z,97049
2018-04-29T05:58:28.473Z,97055
2018-04-29T06:00:56.646Z,97051
2018-04-29T06:03:24.821Z,97048
2018-04-29T06:05:53.000Z,97050
2018-04-29T06:08:21.174Z,97039
2018-04-29T06:10:49.391Z,97040
2018-04-29T06:13:18.355Z,97044
2018-04-29T06:15:46.547Z,97043
2018-04-29T06:18:14.774Z,97042
2018-04-29T06:20:42.951Z,97041
2018-04-29T06:23:11.143Z,97040
2018-04-29T06:25:40.275Z,97038
2018-04-29T06:28:09.277Z,97040
2018-04-29T06:30:38.220Z,97034
2018-04-29T06:33:06.402Z,97037
2018-04-29T06:35:34.626Z,97041
2018-04-29T06:38:03.575Z,97046
2018-04-29T06:40:31.803Z,97040
2018-04-29T06:42:59.985Z,97043
2018-04-29T06:45:28.179Z,97037
2018-04-29T06:47:56.362Z,97035
2018-04-29T06:50:24.540Z,97040
2018-04-29T06:52:52.711Z,97038
2018-04-29T06:55:20.885Z,97041
2018-04-29T06:57:49.081Z,97039
2018-04-29T07:00:17.277Z,97036
2018-04-29T07:02:46.230Z,97033
2018-04-29T07:05:14.445Z,97035
2018-04-29T07:07:42.637Z,97032
2018-04-29T07:10:10.839Z,97033
2018-04-29T07:12:39.789Z,97033
2018-04-29T07:15:08.012Z,97026
2018-04-29T07:17:36.991Z,97027
2018-04-29T07:20:05.988Z,97024
2018-04-29T07:22:34.937Z,97029
2018-04-29T07:25:03.110Z,97025
2018-04-29T07:27:31.279Z,97028
2018-04-29T07:29:59.462Z,97033
2018-04-29T07:32:27.638Z,97034
2018-04-29T07:34:55.811Z,97036
2018-04-29T07:37:23.998Z,97022
2018-04-29T07:39:52.253Z,97031
2018-04-29T07:42:21.181Z,97032
2018-04-29T07:44:49.344Z,97030
2018-04-29T07:47:17.559Z,97032
2018-04-29T07:49:46.512Z,97035
2018-04-29T07:52:14.707Z,97029
2018-04-29T07:54:42.878Z,97036
2018-04-29T07:57:11.064Z,97037
2018-04-29T07:59:39.261Z,97035
2018-04-29T08:02:07.443Z,97037
2018-04-29T08:04:35.618Z,97025
2018-04-29T08:07:03.794Z,97033
2018-04-29T08:09:31.980Z,97027
2018-04-29T08:12:00.150Z,97030
2018-04-29T08:14:28.328Z,97030
2018-04-29T08:16:56.521Z,97031
2018-04-29T08:19:24.708Z,97032
2018-04-29T08:21:52.898Z,97033
2018-04-29T08:24:21.096Z,97024
2018-04-29T08:26:50.041Z,97027
2018-04-29T08:29:18.242Z,97029
2018-04-29T08:31:46.453Z,97028
2018-04-29T08:34:14.626Z,97023
2018-04-29T08:36:42.801Z,97023
2018-04-29T08:39:10.987Z,97032
2018-04-29T08:41:39.175Z,97030
2018-04-29T08:44:07.355Z,97024
2018-04-29T08:46:35.557Z,97025
2018-04-29T08:49:03.753Z,97024
2018-04-29T08:51:32.733Z,97024
2018-04-29T08:54:00.942Z,97020
2018-04-29T08:56:29.108Z,97022
2018-04-29T08:58:58.053Z,97018
2018-04-29T09:01:26.222Z,97021
2018-04-29T09:03:54.524Z,97022
2018-04-29T09:06:22.600Z,97021
2018-04-29T09:08:50.774Z,97020
2018-04-29T09:11:19.734Z,97020
2018-04-29T09:13:47.902Z,97021
2018-04-29T09:16:16.073Z,97019
2018-04-29T09:18:44.257Z,97022
2018-04-29T09:21:12.430Z,97023
2018-04-29T09:23:40.597Z,97013
2018-04-29T09:26:08.829Z,97016
2018-04-29T09:28:37.769Z,97012
2018-04-29T09:31:05.946Z,97011
2018-04-29T09:33:34.117Z,97008
2018-04-29T09:36:02.294Z,97008
2018-04-29T09:38:31.268Z,97006
2018-04-29T09:40:59.576Z,97006
2018-04-29T09:43:27.811Z,97004
2018-04-29T09:45:55.961Z,97002
2018-04-29T09:48:24.896Z,96999
2018-04-29T09:50:53.060Z,96998
2018-04-29T09:53:21.233Z,96997
2018-04-29T09:55:49.395Z,96997
2018-04-29T09:58:18.341Z,96993
2018-04-29T10:00:50.447Z,96989
2018-04-29T10:03:19.408Z,96987
2018-04-29T10:05:47.589Z,96985
2018-04-29T10:08:15.766Z,96985
2018-04-29T10:10:44.114Z,96983
2018-04-29T10:13:12.287Z,96985
2018-04-29T10:15:40.450Z,96976
2018-04-29T10:18:08.616Z,96969
2018-04-29T10:20:36.801Z,96968
2018-04-29T10:23:05.052Z,96962
2018-04-29T10:25:33.352Z,96963
2018-04-29T10:28:01.572Z,96959
2018-04-29T10:30:29.754Z,96954
2018-04-29T10:32:58.714Z,96952
2018-04-29T10:35:26.887Z,96953
2018-04-29T10:37:55.061Z,96955
2018-04-29T10:40:23.242Z,96952
2018-04-29T10:42:51.429Z,96952
2018-04-29T10:45:19.608Z,96949
2018-04-29T10:47:47.807Z,96939
2018-04-29T10:50:16.764Z,96940
2018-04-29T10:52:44.949Z,96937
2018-04-29T10:55:13.133Z,96934
2018-04-29T10:57:42.079Z,96933
2018-04-29T11:00:10.273Z,96931
2018-04-29T11:02:38.529Z,96927
2018-04-29T11:05:06.721Z,96921
2018-04-29T11:07:34.937Z,96922
2018-04-29T11:10:03.928Z,96915
2018-04-29T11:12:32.868Z,96917
2018-04-29T11:15:01.054Z,96910
2018-04-29T11:17:29.274Z,96901
2018-04-29T11:19:58.216Z,96909
2018-04-29T11:22:26.445Z,96905
2018-04-29T11:24:55.397Z,96900
2018-04-29T11:27:23.577Z,96895
2018-04-29T11:29:51.758Z,96892
2018-04-29T11:32:19.933Z,96896
2018-04-29T11:34:48.119Z,96893
2018-04-29T11:37:16.309Z,96886
2018-04-29T11:39:45.241Z,96884
2018-04-29T11:42:13.417Z,96892
2018-04-29T11:44:41.614Z,96886
2018-04-29T11:47:09.793Z,96880
2018-04-29T11:49:37.974Z,96872
2018-04-29T11:52:06.245Z,96871
2018-04-29T11:54:34.391Z,96866
2018-04-29T11:57:02.593Z,96867
2018-04-29T11:59:30.772Z,96863
2018-04-29T12:01:59.022Z,96858
2018-04-29T12:04:27.920Z,96856
2018-04-29T12:06:56.138Z,96856
2018-04-29T12:09:25.101Z,96857
2018-04-29T12:11:53.285Z,96849
2018-04-29T12:14:21.477Z,96846
2018-04-29T12:16:49.663Z,96845
2018-04-29T12:19:18.696Z,96847
2018-04-29T12:21:46.895Z,96837
2018-04-29T12:24:15.070Z,96835
2018-04-29T12:26:43.260Z,96836
2018-04-29T12:29:11.447Z,96830
2018-04-29T12:31:40.396Z,96827
2018-04-29T12:34:08.595Z,96825
2018-04-29T12:36:36.765Z,96823
2018-04-29T12:39:04.970Z,96826
2018-04-29T12:41:33.915Z,96823
2018-04-29T12:44:02.098Z,96810
2018-04-29T12:46:30.270Z,96813
2018-04-29T12:48:58.457Z,96812
2018-04-29T12:51:26.628Z,96803
2018-04-29T12:53:54.811Z,96797
2018-04-29T12:56:23.023Z,96795
2018-04-29T12:58:51.978Z,96794
2018-04-29T13:01:20.174Z,96790
2018-04-29T13:03:49.158Z,96779
2018-04-29T13:06:17.340Z,96785
2018-04-29T13:08:46.296Z,96777
2018-04-29T13:11:14.473Z,96777
2018-04-29T13:13:42.651Z,96769
2018-04-29T13:16:10.857Z,96760
2018-04-29T13:18:40.208Z,96772
2018-04-29T13:21:08.391Z,96755
2018-04-29T13:23:36.566Z,96753
2018-04-29T13:26:04.741Z,96744
2018-04-29T13:28:32.914Z,96744
2018-04-29T13:31:01.128Z,96745
2018-04-29T13:33:29.311Z,96751
2018-04-29T13:35:58.248Z,96741
2018-04-29T13:38:26.525Z,96732
2018-04-29T13:40:54.713Z,96724
2018-04-29T13:43:22.927Z,96732
2018-04-29T13:45:51.881Z,96725
2018-04-29T13:48:20.058Z,96719
2018-04-29T13:50:48.237Z,96717
2018-04-29T13:53:16.439Z,96712
2018-04-29T13:55:44.621Z,96712
2018-04-29T13:58:13.577Z,96708
2018-04-29T14:00:41.751Z,96701
2018-04-29T14:03:09.937Z,96705
2018-04-29T14:05:38.107Z,96699
2018-04-29T14:08:06.308Z,96700
2018-04-29T14:10:35.316Z,96695
2018-04-29T14:13:03.524Z,96687
2018-04-29T14:15:32.441Z,96681
2018-04-29T14:18:00.612Z,96689
2018-04-29T14:20:28.790Z,96697
2018-04-29T14:22:56.975Z,96691
2018-04-29T14:25:25.168Z,96687
2018-04-29T14:27:53.356Z,96690
2018-04-29T14:30:21.548Z,96690
2018-04-29T14:32:49.746Z,96691
2018-04-29T14:35:17.924Z,96684
2018-04-29T14:37:46.105Z,96696
2018-04-29T14:40:14.287Z,96693
2018-04-29T14:42:42.468Z,96696
2018-04-29T14:45:10.652Z,96703
2018-04-29T14:47:38.835Z,96701
2018-04-29T14:50:07.870Z,96701
2018-04-29T14:52:36.049Z,96700
2018-04-29T14:55:04.245Z,96698
2018-04-29T14:57:32.438Z,96694
2018-04-29T15:00:00.710Z,96693
2018-04-29T15:02:28.883Z,96695
2018-04-29T15:04:57.058Z,96697
2018-04-29T15:07:25.237Z,96698
2018-04-29T15:09:53.584Z,96705
2018-04-29T15:12:21.794Z,96700
2018-04-29T15:14:50.027Z,96699
2018-04-29T15:17:18.200Z,96697
2018-04-29T15:19:51.213Z,96694
2018-04-29T15:22:19.402Z,96697
2018-04-29T15:24:47.576Z,96699
2018-04-29T15:27:15.740Z,96698
2018-04-29T15:29:43.926Z,96694
2018-04-29T15:32:12.131Z,96694
2018-04-29T15:34:41.072Z,96692
2018-04-29T15:37:09.253Z,96682
2018-04-29T15:39:37.436Z,96686
2018-04-29T15:42:05.615Z,96684
2018-04-29T15:44:33.809Z,96680
2018-04-29T15:47:01.990Z,96681
2018-04-29T15:49:30.933Z,96676
2018-04-29T15:51:59.122Z,96677
2018-04-29T15:54:27.307Z,96679
2018-04-29T15:56:56.260Z,96682
2018-04-29T15:59:24.443Z,96682
2018-04-29T16:01:52.627Z,96680
2018-04-29T16:04:20.905Z,96688
2018-04-29T16:06:49.089Z,96691
2018-04-29T16:09:17.304Z,96690
2018-04-29T16:11:46.337Z,96685
2018-04-29T16:14:14.446Z,96683
2018-04-29T16:16:42.625Z,96678
2018-04-29T16:19:10.821Z,96674
2018-04-29T16:21:39.811Z,96678
2018-04-29T16:24:08.766Z,96673
2018-04-29T16:26:36.941Z,96679
2018-04-29T16:29:05.157Z,96678
2018-04-29T16:31:34.105Z,96673
2018-04-29T16:34:02.294Z,96676
2018-04-29T16:36:30.509Z,96681
2018-04-29T16:38:59.448Z,96679
2018-04-29T16:41:27.675Z,96672
2018-04-29T16:43:56.621Z,96682
2018-04-29T16:46:24.787Z,96686
2018-04-29T16:48:52.966Z,96682
2018-04-29T16:51:21.141Z,96678
2018-04-29T16:53:49.313Z,96681
2018-04-29T16:56:17.485Z,96683
2018-04-29T16:58:45.662Z,96682
2018-04-29T17:01:13.893Z,96679
2018-04-29T17:03:42.838Z,96680
2018-04-29T17:06:11.280Z,96685
2018-04-29T17:08:39.454Z,96685
2018-04-29T17:11:07.639Z,96686
2018-04-29T17:13:35.864Z,96676
2018-04-29T17:16:04.041Z,96672
2018-04-29T17:18:32.224Z,96669
2018-04-29T17:21:00.403Z,96672
2018-04-29T17:23:29.381Z,96669
2018-04-29T17:25:59.274Z,96674
2018-04-29T17:28:27.447Z,96680
2018-04-29T17:30:55.686Z,96676
2018-04-29T17:33:23.865Z,96678
2018-04-29T17:35:52.054Z,96681
2018-04-29T17:38:20.232Z,96676
2018-04-29T17:40:48.394Z,96677
2018-04-29T17:43:16.598Z,96678
2018-04-29T17:45:44.864Z,96676
2018-04-29T17:48:13.038Z,96676
2018-04-29T17:50:41.217Z,96675
2018-04-29T17:53:09.398Z,96677
2018-04-29T17:55:37.580Z,96674
2018-04-29T17:58:05.784Z,96672
2018-04-29T18:00:34.730Z,96677
2018-04-29T18:03:03.432Z,96673
2018-04-29T18:05:31.604Z,96669
2018-04-29T18:07:59.782Z,96674
2018-04-29T18:10:27.977Z,96676
2018-04-29T18:12:56.175Z,96678
2018-04-29T18:15:25.124Z,96675
2018-04-29T18:17:53.294Z,96674
2018-04-29T18:20:21.486Z,96671
2018-04-29T18:22:49.711Z,96677
2018-04-29T18:25:17.887Z,96679
2018-04-29T18:27:46.129Z,96682
2018-04-29T18:30:14.261Z,96685
2018-04-29T18:32:42.442Z,96685
2018-04-29T18:35:10.628Z,96686
2018-04-29T18:37:38.803Z,96689
2018-04-29T18:40:07.771Z,96700
2018-04-29T18:42:35.961Z,96703
2018-04-29T18:45:04.145Z,96702
2018-04-29T18:47:32.388Z,96702
2018-04-29T18:50:00.569Z,96703
2018-04-29T18:52:28.734Z,96711
2018-04-29T18:54:56.912Z,96711
2018-04-29T18:57:25.080Z,96715
2018-04-29T18:59:53.435Z,96716
2018-04-29T19:02:22.342Z,96720
2018-04-29T19:04:50.566Z,96722
2018-04-29T19:07:18.756Z,96727
2018-04-29T19:09:47.091Z,96734
2018-04-29T19:12:15.260Z,96731
2018-04-29T19:14:43.425Z,96724
2018-04-29T19:17:11.592Z,96728
2018-04-29T19:19:39.818Z,96735
2018-04-29T19:22:08.009Z,96727
2018-04-29T19:24:36.196Z,96726
2018-04-29T19:27:05.147Z,96727
2018-04-29T19:29:33.332Z,96725
2018-04-29T19:32:01.517Z,96729
2018-04-29T19:34:29.707Z,96733
2018-04-29T19:36:58.674Z,96736
2018-04-29T19:39:26.850Z,96737
2018-04-29T19:41:55.024Z,96738
2018-04-29T19:44:23.229Z,96742
2018-04-29T19:46:52.201Z,96742
2018-04-29T19:49:20.383Z,96739
2018-04-29T19:51:48.592Z,96736
2018-04-29T19:54:16.806Z,96730
2018-04-29T19:56:44.988Z,96737
2018-04-29T19:59:14.145Z,96729
2018-04-29T20:01:42.338Z,96731
2018-04-29T20:04:10.691Z,96731
2018-04-29T20:06:39.370Z,96734
2018-04-29T20:09:10.028Z,96735
2018-04-29T20:11:39.452Z,96733
2018-04-29T20:14:14.377Z,96734
2018-04-29T20:16:42.941Z,96736
2018-04-29T20:19:12.166Z,96735
2018-04-29T20:21:41.176Z,96735
2018-04-29T20:24:09.979Z,96730
2018-04-29T20:26:38.165Z,96727
2018-04-29T20:29:08.651Z,96726
2018-04-29T20:31:37.213Z,96722
2018-04-29T20:34:05.385Z,96716
2018-04-29T20:36:33.561Z,96715
2018-04-29T20:39:01.767Z,96722
2018-04-29T20:41:29.941Z,96726
2018-04-29T20:43:58.114Z,96719
2018-04-29T20:46:26.285Z,96720
2018-04-29T20:48:54.470Z,96710
2018-04-29T20:51:22.668Z,96715
2018-04-29T20:53:50.845Z,96714
2018-04-29T20:56:19.031Z,96712
2018-04-29T20:58:47.981Z,96710
2018-04-29T21:01:16.148Z,96717
2018-04-29T21:03:44.331Z,96717
2018-04-29T21:06:12.505Z,96716
2018-04-29T21:08:40.706Z,96719
2018-04-29T21:11:08.897Z,96725
2018-04-29T21:13:37.969Z,96725
2018-04-29T21:16:06.165Z,96721
2018-04-29T21:18:35.106Z,96717
2018-04-29T21:21:03.289Z,96715
2018-04-29T21:23:31.464Z,96722
2018-04-29T21:25:59.637Z,96722
2018-04-29T21:28:27.810Z,96724
2018-04-29T21:30:55.989Z,96725
2018-04-29T21:33:24.205Z,96725
2018-04-29T21:35:53.152Z,96722
2018-04-29T21:38:21.333Z,96719
2018-04-29T21:40:49.516Z,96724
2018-04-29T21:43:17.697Z,96719
2018-04-29T21:45:45.889Z,96716
2018-04-29T21:48:14.066Z,96714
2018-04-29T21:50:43.017Z,96715
2018-04-29T21:53:11.196Z,96710
2018-04-29T21:55:39.378Z,96710
2018-04-29T21:58:07.588Z,96708
2018-04-29T22:00:36.565Z,96710
2018-04-29T22:03:05.654Z,96708
2018-04-29T22:05:33.830Z,96710
2018-04-29T22:08:02.025Z,96710
2018-04-29T22:10:31.027Z,96709
2018-04-29T22:13:02.811Z,96712
2018-04-29T22:15:30.985Z,96716
2018-04-29T22:17:59.167Z,96714
2018-04-29T22:20:27.357Z,96711
2018-04-29T22:22:55.539Z,96715
2018-04-29T22:25:23.708Z,96721
2018-04-29T22:27:51.988Z,96715
2018-04-29T22:30:20.955Z,96715
2018-04-29T22:32:49.157Z,96713
2018-04-29T22:35:17.393Z,96709
2018-04-29T22:37:45.569Z,96704
2018-04-29T22:40:13.790Z,96702
2018-04-29T22:42:41.969Z,96698
2018-04-29T22:45:10.141Z,96698
2018-04-29T22:47:38.376Z,96691
2018-04-29T22:50:06.568Z,96690
2018-04-29T22:52:34.768Z,96690
2018-04-29T22:55:02.984Z,96685
2018-04-29T22:57:31.982Z,96685
2018-04-29T23:00:00.934Z,96676
2018-04-29T23:02:29.897Z,96669
2018-04-29T23:04:58.094Z,96665
2018-04-29T23:07:26.306Z,96667
2018-04-29T23:09:55.278Z,96664
2018-04-29T23:12:23.465Z,96658
2018-04-29T23:14:51.663Z,96665
2018-04-29T23:17:20.661Z,96657
2018-04-29T23:19:48.868Z,96655
2018-04-29T23:22:17.052Z,96646
2018-04-29T23:24:45.268Z,96643
2018-04-29T23:27:14.217Z,96640
2018-04-29T23:29:42.425Z,96637
2018-04-29T23:32:10.605Z,96638
2018-04-29T23:34:38.820Z,96639
2018-04-29T23:37:07.023Z,96637
2018-04-29T23:39:35.233Z,96633
2018-04-29T23:42:04.213Z,96635
2018-04-29T23:44:32.404Z,96633
2018-04-29T23:47:01.387Z,96627
2018-04-29T23:49:29.614Z,96624
2018-04-29T23:51:57.788Z,96627
2018-04-29T23:54:26.016Z,96628
2018-04-29T23:56:54.968Z,96634
2018-04-29T23:59:23.141Z,96627
